sensor_id;sensor_type;location;lat;lon;timestamp;temperature;humidity
52743;DHT22;55583;53.012;6.556;2023-08-06T00:00:06;14.10;99.90
52743;DHT22;55583;53.012;6.556;2023-08-06T00:02:32;14.10;99.90
52743;DHT22;55583;53.012;6.556;2023-08-06T00:04:57;14.10;99.90
52743;DHT22;55583;53.012;6.556;2023-08-06T00:07:23;14.00;99.90
52743;DHT22;55583;53.012;6.556;2023-08-06T00:09:48;14.00;99.90
52743;DHT22;55583;53.012;6.556;2023-08-06T00:12:14;14.00;99.90
52743;DHT22;55583;53.012;6.556;2023-08-06T00:14:40;14.00;99.90
52743;DHT22;55583;53.012;6.556;2023-08-06T00:17:05;14.00;99.90
52743;DHT22;55583;53.012;6.556;2023-08-06T00:19:32;14.00;99.90
52743;DHT22;55583;53.012;6.556;2023-08-06T00:21:57;14.00;99.90
52743;DHT22;55583;53.012;6.556;2023-08-06T00:24:23;14.00;99.90
52743;DHT22;55583;53.012;6.556;2023-08-06T00:26:49;14.10;99.90
52743;DHT22;55583;53.012;6.556;2023-08-06T00:29:15;14.10;99.90
52743;DHT22;55583;53.012;6.556;2023-08-06T00:31:41;14.10;99.90
52743;DHT22;55583;53.012;6.556;2023-08-06T00:34:07;14.10;99.90
52743;DHT22;55583;53.012;6.556;2023-08-06T00:36:32;14.10;99.90
52743;DHT22;55583;53.012;6.556;2023-08-06T00:38:58;14.10;99.90
52743;DHT22;55583;53.012;6.556;2023-08-06T00:41:23;14.10;99.90
52743;DHT22;55583;53.012;6.556;2023-08-06T00:43:49;14.10;99.90
52743;DHT22;55583;53.012;6.556;2023-08-06T00:46:15;14.00;99.90
52743;DHT22;55583;53.012;6.556;2023-08-06T00:48:41;14.00;99.90
52743;DHT22;55583;53.012;6.556;2023-08-06T00:51:09;14.10;99.90
52743;DHT22;55583;53.012;6.556;2023-08-06T00:53:36;14.10;99.90
52743;DHT22;55583;53.012;6.556;2023-08-06T00:56:02;14.00;99.90
52743;DHT22;55583;53.012;6.556;2023-08-06T00:58:28;14.00;99.90
52743;DHT22;55583;53.012;6.556;2023-08-06T01:00:54;14.00;99.90
52743;DHT22;55583;53.012;6.556;2023-08-06T01:03:20;14.00;99.90
52743;DHT22;55583;53.012;6.556;2023-08-06T01:05:46;14.00;99.90
52743;DHT22;55583;53.012;6.556;2023-08-06T01:13:43;13.90;99.90
52743;DHT22;55583;53.012;6.556;2023-08-06T01:16:17;14.00;99.90
52743;DHT22;55583;53.012;6.556;2023-08-06T01:18:44;13.90;99.90
52743;DHT22;55583;53.012;6.556;2023-08-06T01:21:18;13.90;99.90
52743;DHT22;55583;53.012;6.556;2023-08-06T01:23:45;13.90;99.90
52743;DHT22;55583;53.012;6.556;2023-08-06T01:26:35;14.00;99.90
52743;DHT22;55583;53.012;6.556;2023-08-06T01:32:03;13.90;99.90
52743;DHT22;55583;53.012;6.556;2023-08-06T01:34:32;13.90;99.90
52743;DHT22;55583;53.012;6.556;2023-08-06T01:37:00;13.90;99.90
52743;DHT22;55583;53.012;6.556;2023-08-06T01:39:26;13.90;99.90
52743;DHT22;55583;53.012;6.556;2023-08-06T01:41:51;13.90;99.90
52743;DHT22;55583;53.012;6.556;2023-08-06T01:44:18;13.90;99.90
52743;DHT22;55583;53.012;6.556;2023-08-06T01:46:43;13.90;99.90
52743;DHT22;55583;53.012;6.556;2023-08-06T01:49:09;13.90;99.90
52743;DHT22;55583;53.012;6.556;2023-08-06T01:51:35;14.00;99.90
52743;DHT22;55583;53.012;6.556;2023-08-06T01:54:00;13.90;99.90
52743;DHT22;55583;53.012;6.556;2023-08-06T01:56:26;13.90;99.90
52743;DHT22;55583;53.012;6.556;2023-08-06T01:58:51;13.90;99.90
52743;DHT22;55583;53.012;6.556;2023-08-06T02:01:17;13.90;99.90
52743;DHT22;55583;53.012;6.556;2023-08-06T02:03:43;14.00;99.90
52743;DHT22;55583;53.012;6.556;2023-08-06T02:06:08;13.90;99.90
52743;DHT22;55583;53.012;6.556;2023-08-06T02:08:34;13.90;99.90
52743;DHT22;55583;53.012;6.556;2023-08-06T02:11:00;13.90;99.90
52743;DHT22;55583;53.012;6.556;2023-08-06T02:13:26;13.90;99.90
52743;DHT22;55583;53.012;6.556;2023-08-06T02:15:51;13.90;99.90
52743;DHT22;55583;53.012;6.556;2023-08-06T02:18:17;13.90;99.90
52743;DHT22;55583;53.012;6.556;2023-08-06T02:20:43;13.90;99.90
52743;DHT22;55583;53.012;6.556;2023-08-06T02:23:09;13.90;99.90
52743;DHT22;55583;53.012;6.556;2023-08-06T02:25:35;13.90;99.90
52743;DHT22;55583;53.012;6.556;2023-08-06T02:28:01;13.90;99.90
52743;DHT22;55583;53.012;6.556;2023-08-06T02:30:26;13.90;99.90
52743;DHT22;55583;53.012;6.556;2023-08-06T02:32:52;13.90;99.90
52743;DHT22;55583;53.012;6.556;2023-08-06T02:35:18;13.90;99.90
52743;DHT22;55583;53.012;6.556;2023-08-06T02:37:43;13.90;99.90
52743;DHT22;55583;53.012;6.556;2023-08-06T02:40:09;13.90;99.90
52743;DHT22;55583;53.012;6.556;2023-08-06T02:42:35;14.00;99.90
52743;DHT22;55583;53.012;6.556;2023-08-06T02:45:01;13.90;99.90
52743;DHT22;55583;53.012;6.556;2023-08-06T02:47:26;14.00;99.90
52743;DHT22;55583;53.012;6.556;2023-08-06T02:49:52;14.00;99.90
52743;DHT22;55583;53.012;6.556;2023-08-06T02:52:18;14.00;99.90
52743;DHT22;55583;53.012;6.556;2023-08-06T02:54:44;14.00;99.90
52743;DHT22;55583;53.012;6.556;2023-08-06T02:57:09;14.00;99.90
52743;DHT22;55583;53.012;6.556;2023-08-06T02:59:35;14.00;99.90
52743;DHT22;55583;53.012;6.556;2023-08-06T03:02:01;14.00;99.90
52743;DHT22;55583;53.012;6.556;2023-08-06T03:04:27;14.00;99.90
52743;DHT22;55583;53.012;6.556;2023-08-06T03:06:53;14.00;99.90
52743;DHT22;55583;53.012;6.556;2023-08-06T03:09:18;14.00;99.90
52743;DHT22;55583;53.012;6.556;2023-08-06T03:11:44;14.00;99.90
52743;DHT22;55583;53.012;6.556;2023-08-06T03:14:10;14.00;99.90
52743;DHT22;55583;53.012;6.556;2023-08-06T03:16:35;13.90;99.90
52743;DHT22;55583;53.012;6.556;2023-08-06T03:19:02;13.90;99.90
52743;DHT22;55583;53.012;6.556;2023-08-06T03:21:27;13.80;99.90
52743;DHT22;55583;53.012;6.556;2023-08-06T03:23:53;13.90;99.90
52743;DHT22;55583;53.012;6.556;2023-08-06T03:26:19;13.70;99.90
52743;DHT22;55583;53.012;6.556;2023-08-06T03:28:44;13.60;99.90
52743;DHT22;55583;53.012;6.556;2023-08-06T03:31:10;13.60;99.90
52743;DHT22;55583;53.012;6.556;2023-08-06T03:33:36;13.70;99.90
52743;DHT22;55583;53.012;6.556;2023-08-06T03:36:02;13.50;99.90
52743;DHT22;55583;53.012;6.556;2023-08-06T03:38:27;13.50;99.90
52743;DHT22;55583;53.012;6.556;2023-08-06T03:40:53;13.50;99.90
52743;DHT22;55583;53.012;6.556;2023-08-06T03:43:19;13.40;99.90
52743;DHT22;55583;53.012;6.556;2023-08-06T03:45:44;13.40;99.90
52743;DHT22;55583;53.012;6.556;2023-08-06T03:48:10;13.30;99.90
52743;DHT22;55583;53.012;6.556;2023-08-06T03:50:36;13.30;99.90
52743;DHT22;55583;53.012;6.556;2023-08-06T03:53:02;13.30;99.90
52743;DHT22;55583;53.012;6.556;2023-08-06T03:55:28;13.30;99.90
52743;DHT22;55583;53.012;6.556;2023-08-06T03:57:55;13.20;99.90
52743;DHT22;55583;53.012;6.556;2023-08-06T04:00:20;13.20;99.90
52743;DHT22;55583;53.012;6.556;2023-08-06T04:02:46;13.10;99.90
52743;DHT22;55583;53.012;6.556;2023-08-06T04:05:12;13.10;99.90
52743;DHT22;55583;53.012;6.556;2023-08-06T04:07:37;13.10;99.90
52743;DHT22;55583;53.012;6.556;2023-08-06T04:10:04;13.00;99.90
52743;DHT22;55583;53.012;6.556;2023-08-06T04:12:31;13.00;99.90
52743;DHT22;55583;53.012;6.556;2023-08-06T04:14:58;13.00;99.90
52743;DHT22;55583;53.012;6.556;2023-08-06T04:17:24;13.40;99.90
52743;DHT22;55583;53.012;6.556;2023-08-06T04:19:52;13.00;99.90
52743;DHT22;55583;53.012;6.556;2023-08-06T04:22:19;13.10;99.90
52743;DHT22;55583;53.012;6.556;2023-08-06T04:24:45;13.10;99.90
52743;DHT22;55583;53.012;6.556;2023-08-06T04:27:11;13.00;99.90
52743;DHT22;55583;53.012;6.556;2023-08-06T04:29:37;13.10;99.90
52743;DHT22;55583;53.012;6.556;2023-08-06T04:32:08;13.10;99.90
52743;DHT22;55583;53.012;6.556;2023-08-06T04:34:35;13.20;99.90
52743;DHT22;55583;53.012;6.556;2023-08-06T04:37:02;13.20;99.90
52743;DHT22;55583;53.012;6.556;2023-08-06T04:39:27;13.20;99.90
52743;DHT22;55583;53.012;6.556;2023-08-06T04:41:53;13.20;99.90
52743;DHT22;55583;53.012;6.556;2023-08-06T04:44:18;13.30;99.90
52743;DHT22;55583;53.012;6.556;2023-08-06T04:46:44;13.30;99.90
52743;DHT22;55583;53.012;6.556;2023-08-06T04:49:10;13.40;99.90
52743;DHT22;55583;53.012;6.556;2023-08-06T04:51:35;13.40;99.90
52743;DHT22;55583;53.012;6.556;2023-08-06T04:54:01;13.40;99.90
52743;DHT22;55583;53.012;6.556;2023-08-06T04:56:27;13.40;99.90
52743;DHT22;55583;53.012;6.556;2023-08-06T04:58:53;13.40;99.90
52743;DHT22;55583;53.012;6.556;2023-08-06T05:01:19;13.40;99.90
52743;DHT22;55583;53.012;6.556;2023-08-06T05:03:44;13.50;99.90
52743;DHT22;55583;53.012;6.556;2023-08-06T05:06:10;13.50;99.90
52743;DHT22;55583;53.012;6.556;2023-08-06T05:08:36;13.60;99.90
52743;DHT22;55583;53.012;6.556;2023-08-06T05:11:01;13.60;99.90
52743;DHT22;55583;53.012;6.556;2023-08-06T05:13:27;13.70;99.90
52743;DHT22;55583;53.012;6.556;2023-08-06T05:15:56;13.70;99.90
52743;DHT22;55583;53.012;6.556;2023-08-06T05:18:21;13.60;99.90
52743;DHT22;55583;53.012;6.556;2023-08-06T05:20:47;13.70;99.90
52743;DHT22;55583;53.012;6.556;2023-08-06T05:23:13;13.70;99.90
52743;DHT22;55583;53.012;6.556;2023-08-06T05:25:38;13.70;99.90
52743;DHT22;55583;53.012;6.556;2023-08-06T05:28:04;13.70;99.90
52743;DHT22;55583;53.012;6.556;2023-08-06T05:30:30;13.80;99.90
52743;DHT22;55583;53.012;6.556;2023-08-06T05:32:56;13.80;99.90
52743;DHT22;55583;53.012;6.556;2023-08-06T05:35:22;13.90;99.90
52743;DHT22;55583;53.012;6.556;2023-08-06T05:37:50;13.90;99.90
52743;DHT22;55583;53.012;6.556;2023-08-06T05:40:15;13.90;99.90
52743;DHT22;55583;53.012;6.556;2023-08-06T05:42:41;14.00;99.90
52743;DHT22;55583;53.012;6.556;2023-08-06T05:45:07;14.10;99.90
52743;DHT22;55583;53.012;6.556;2023-08-06T05:47:33;14.20;99.90
52743;DHT22;55583;53.012;6.556;2023-08-06T05:49:59;14.30;99.90
52743;DHT22;55583;53.012;6.556;2023-08-06T05:52:24;14.50;99.90
52743;DHT22;55583;53.012;6.556;2023-08-06T05:54:50;14.60;99.90
52743;DHT22;55583;53.012;6.556;2023-08-06T05:57:16;14.70;99.90
52743;DHT22;55583;53.012;6.556;2023-08-06T05:59:43;14.90;99.90
52743;DHT22;55583;53.012;6.556;2023-08-06T06:02:08;14.90;99.90
52743;DHT22;55583;53.012;6.556;2023-08-06T06:04:34;14.80;99.90
52743;DHT22;55583;53.012;6.556;2023-08-06T06:07:00;14.70;99.90
52743;DHT22;55583;53.012;6.556;2023-08-06T06:09:25;14.70;99.90
52743;DHT22;55583;53.012;6.556;2023-08-06T06:11:51;14.60;99.90
52743;DHT22;55583;53.012;6.556;2023-08-06T06:14:17;14.60;99.90
52743;DHT22;55583;53.012;6.556;2023-08-06T06:16:43;14.50;99.90
52743;DHT22;55583;53.012;6.556;2023-08-06T06:19:09;14.40;99.90
52743;DHT22;55583;53.012;6.556;2023-08-06T06:21:34;14.30;99.90
52743;DHT22;55583;53.012;6.556;2023-08-06T06:24:00;14.30;99.90
52743;DHT22;55583;53.012;6.556;2023-08-06T06:26:26;14.20;99.90
52743;DHT22;55583;53.012;6.556;2023-08-06T06:28:52;14.20;99.90
52743;DHT22;55583;53.012;6.556;2023-08-06T06:31:17;14.20;99.90
52743;DHT22;55583;53.012;6.556;2023-08-06T06:33:43;14.10;99.90
52743;DHT22;55583;53.012;6.556;2023-08-06T06:36:09;14.10;99.90
52743;DHT22;55583;53.012;6.556;2023-08-06T06:38:35;14.10;99.90
52743;DHT22;55583;53.012;6.556;2023-08-06T06:41:01;14.20;99.90
52743;DHT22;55583;53.012;6.556;2023-08-06T06:43:28;14.30;99.90
52743;DHT22;55583;53.012;6.556;2023-08-06T06:45:57;14.40;99.90
52743;DHT22;55583;53.012;6.556;2023-08-06T06:48:27;14.50;99.90
52743;DHT22;55583;53.012;6.556;2023-08-06T06:50:53;14.60;99.90
52743;DHT22;55583;53.012;6.556;2023-08-06T06:53:19;14.60;99.90
52743;DHT22;55583;53.012;6.556;2023-08-06T06:55:45;14.80;99.90
52743;DHT22;55583;53.012;6.556;2023-08-06T06:58:11;14.90;99.90
52743;DHT22;55583;53.012;6.556;2023-08-06T07:00:37;15.00;99.90
52743;DHT22;55583;53.012;6.556;2023-08-06T07:03:03;15.10;99.90
52743;DHT22;55583;53.012;6.556;2023-08-06T07:05:29;15.20;99.90
52743;DHT22;55583;53.012;6.556;2023-08-06T07:07:54;15.30;99.90
52743;DHT22;55583;53.012;6.556;2023-08-06T07:10:20;15.50;99.90
52743;DHT22;55583;53.012;6.556;2023-08-06T07:12:46;15.60;99.90
52743;DHT22;55583;53.012;6.556;2023-08-06T07:15:12;15.60;99.90
52743;DHT22;55583;53.012;6.556;2023-08-06T07:17:37;15.80;99.90
52743;DHT22;55583;53.012;6.556;2023-08-06T07:20:03;15.80;99.90
52743;DHT22;55583;53.012;6.556;2023-08-06T07:22:29;15.80;99.90
52743;DHT22;55583;53.012;6.556;2023-08-06T07:24:55;15.90;99.90
52743;DHT22;55583;53.012;6.556;2023-08-06T07:27:21;16.00;99.90
52743;DHT22;55583;53.012;6.556;2023-08-06T07:29:46;16.10;99.90
52743;DHT22;55583;53.012;6.556;2023-08-06T07:32:13;16.20;99.90
52743;DHT22;55583;53.012;6.556;2023-08-06T07:34:39;16.30;99.90
52743;DHT22;55583;53.012;6.556;2023-08-06T07:37:05;16.40;99.90
52743;DHT22;55583;53.012;6.556;2023-08-06T07:39:31;16.50;99.90
52743;DHT22;55583;53.012;6.556;2023-08-06T07:41:57;16.60;99.90
52743;DHT22;55583;53.012;6.556;2023-08-06T07:44:22;16.70;99.90
52743;DHT22;55583;53.012;6.556;2023-08-06T07:46:49;16.70;99.90
52743;DHT22;55583;53.012;6.556;2023-08-06T07:49:15;16.80;99.90
52743;DHT22;55583;53.012;6.556;2023-08-06T07:51:40;17.00;99.90
52743;DHT22;55583;53.012;6.556;2023-08-06T07:54:07;17.10;99.90
52743;DHT22;55583;53.012;6.556;2023-08-06T07:56:32;17.40;99.90
52743;DHT22;55583;53.012;6.556;2023-08-06T07:58:58;17.50;99.90
52743;DHT22;55583;53.012;6.556;2023-08-06T08:01:24;17.60;99.90
52743;DHT22;55583;53.012;6.556;2023-08-06T08:03:49;17.70;99.90
52743;DHT22;55583;53.012;6.556;2023-08-06T08:06:15;17.70;99.90
52743;DHT22;55583;53.012;6.556;2023-08-06T08:08:41;17.70;99.90
52743;DHT22;55583;53.012;6.556;2023-08-06T08:11:07;17.70;99.90
52743;DHT22;55583;53.012;6.556;2023-08-06T08:13:33;17.80;99.90
52743;DHT22;55583;53.012;6.556;2023-08-06T08:16:00;17.90;99.90
52743;DHT22;55583;53.012;6.556;2023-08-06T08:18:26;17.80;99.90
52743;DHT22;55583;53.012;6.556;2023-08-06T08:20:51;17.80;99.90
52743;DHT22;55583;53.012;6.556;2023-08-06T08:23:17;17.80;99.90
52743;DHT22;55583;53.012;6.556;2023-08-06T08:25:43;17.90;99.90
52743;DHT22;55583;53.012;6.556;2023-08-06T08:28:08;18.00;99.90
52743;DHT22;55583;53.012;6.556;2023-08-06T08:30:34;18.00;99.90
52743;DHT22;55583;53.012;6.556;2023-08-06T08:33:00;18.00;99.90
52743;DHT22;55583;53.012;6.556;2023-08-06T08:35:25;18.20;99.90
52743;DHT22;55583;53.012;6.556;2023-08-06T08:37:51;18.20;99.90
52743;DHT22;55583;53.012;6.556;2023-08-06T08:40:17;18.40;99.90
52743;DHT22;55583;53.012;6.556;2023-08-06T08:42:43;18.60;99.90
52743;DHT22;55583;53.012;6.556;2023-08-06T08:45:13;18.90;99.90
52743;DHT22;55583;53.012;6.556;2023-08-06T08:47:40;19.30;99.90
52743;DHT22;55583;53.012;6.556;2023-08-06T08:50:08;19.60;99.90
52743;DHT22;55583;53.012;6.556;2023-08-06T08:52:35;19.80;99.90
52743;DHT22;55583;53.012;6.556;2023-08-06T08:55:02;20.00;99.90
52743;DHT22;55583;53.012;6.556;2023-08-06T08:57:27;20.10;99.90
52743;DHT22;55583;53.012;6.556;2023-08-06T08:59:53;20.20;99.90
52743;DHT22;55583;53.012;6.556;2023-08-06T09:02:21;20.30;99.90
52743;DHT22;55583;53.012;6.556;2023-08-06T09:04:48;20.30;99.90
52743;DHT22;55583;53.012;6.556;2023-08-06T09:07:18;20.40;99.90
52743;DHT22;55583;53.012;6.556;2023-08-06T09:09:47;20.50;99.90
52743;DHT22;55583;53.012;6.556;2023-08-06T09:12:15;20.60;99.90
52743;DHT22;55583;53.012;6.556;2023-08-06T09:14:41;20.80;99.90
52743;DHT22;55583;53.012;6.556;2023-08-06T09:17:07;20.90;99.90
52743;DHT22;55583;53.012;6.556;2023-08-06T09:19:34;20.90;99.90
52743;DHT22;55583;53.012;6.556;2023-08-06T09:22:00;20.90;99.90
52743;DHT22;55583;53.012;6.556;2023-08-06T09:24:25;20.90;99.90
52743;DHT22;55583;53.012;6.556;2023-08-06T09:26:54;21.10;99.90
52743;DHT22;55583;53.012;6.556;2023-08-06T09:29:20;21.30;99.90
52743;DHT22;55583;53.012;6.556;2023-08-06T09:31:48;21.50;99.90
52743;DHT22;55583;53.012;6.556;2023-08-06T09:34:18;21.70;99.90
52743;DHT22;55583;53.012;6.556;2023-08-06T09:36:49;22.00;99.90
52743;DHT22;55583;53.012;6.556;2023-08-06T09:39:17;22.10;99.90
52743;DHT22;55583;53.012;6.556;2023-08-06T09:41:44;22.00;99.90
52743;DHT22;55583;53.012;6.556;2023-08-06T09:44:20;22.00;99.90
52743;DHT22;55583;53.012;6.556;2023-08-06T09:46:50;22.40;98.90
52743;DHT22;55583;53.012;6.556;2023-08-06T09:49:17;22.60;99.90
52743;DHT22;55583;53.012;6.556;2023-08-06T09:51:44;22.60;99.50
52743;DHT22;55583;53.012;6.556;2023-08-06T09:54:12;22.50;98.70
52743;DHT22;55583;53.012;6.556;2023-08-06T09:56:38;22.70;97.80
52743;DHT22;55583;53.012;6.556;2023-08-06T09:59:07;23.40;96.20
52743;DHT22;55583;53.012;6.556;2023-08-06T10:01:34;24.40;92.40
52743;DHT22;55583;53.012;6.556;2023-08-06T10:04:04;25.20;90.00
52743;DHT22;55583;53.012;6.556;2023-08-06T10:06:34;25.80;85.40
52743;DHT22;55583;53.012;6.556;2023-08-06T10:09:01;26.20;80.50
52743;DHT22;55583;53.012;6.556;2023-08-06T10:11:29;26.10;79.60
52743;DHT22;55583;53.012;6.556;2023-08-06T10:16:49;25.80;75.90
52743;DHT22;55583;53.012;6.556;2023-08-06T10:19:16;25.50;77.90
52743;DHT22;55583;53.012;6.556;2023-08-06T10:22:12;25.40;77.60
52743;DHT22;55583;53.012;6.556;2023-08-06T10:24:52;25.00;74.80
52743;DHT22;55583;53.012;6.556;2023-08-06T10:27:21;24.80;75.40
52743;DHT22;55583;53.012;6.556;2023-08-06T10:29:48;24.80;77.20
52743;DHT22;55583;53.012;6.556;2023-08-06T10:32:15;24.90;77.20
52743;DHT22;55583;53.012;6.556;2023-08-06T10:34:54;25.20;76.10
52743;DHT22;55583;53.012;6.556;2023-08-06T10:37:21;25.50;73.90
52743;DHT22;55583;53.012;6.556;2023-08-06T10:39:51;25.30;75.80
52743;DHT22;55583;53.012;6.556;2023-08-06T10:42:43;25.20;75.10
52743;DHT22;55583;53.012;6.556;2023-08-06T10:45:16;25.00;73.80
52743;DHT22;55583;53.012;6.556;2023-08-06T10:47:43;24.90;76.20
52743;DHT22;55583;53.012;6.556;2023-08-06T10:50:12;25.10;77.20
52743;DHT22;55583;53.012;6.556;2023-08-06T10:52:38;25.30;74.80
52743;DHT22;55583;53.012;6.556;2023-08-06T10:55:04;25.20;74.10
52743;DHT22;55583;53.012;6.556;2023-08-06T10:57:30;25.80;73.80
52743;DHT22;55583;53.012;6.556;2023-08-06T10:59:56;26.90;72.80
52743;DHT22;55583;53.012;6.556;2023-08-06T11:02:21;28.00;69.60
52743;DHT22;55583;53.012;6.556;2023-08-06T11:04:48;28.20;68.50
52743;DHT22;55583;53.012;6.556;2023-08-06T11:07:14;28.40;68.00
52743;DHT22;55583;53.012;6.556;2023-08-06T11:09:39;28.90;67.50
52743;DHT22;55583;53.012;6.556;2023-08-06T11:12:09;29.50;66.10
52743;DHT22;55583;53.012;6.556;2023-08-06T11:14:35;29.30;64.40
52743;DHT22;55583;53.012;6.556;2023-08-06T11:17:01;29.00;65.30
52743;DHT22;55583;53.012;6.556;2023-08-06T11:19:27;29.30;65.00
52743;DHT22;55583;53.012;6.556;2023-08-06T11:21:54;29.50;63.90
52743;DHT22;55583;53.012;6.556;2023-08-06T11:24:20;29.40;62.90
52743;DHT22;55583;53.012;6.556;2023-08-06T11:26:45;28.70;64.10
52743;DHT22;55583;53.012;6.556;2023-08-06T11:29:11;27.80;65.30
52743;DHT22;55583;53.012;6.556;2023-08-06T11:31:37;27.20;66.30
52743;DHT22;55583;53.012;6.556;2023-08-06T11:34:02;26.70;67.30
52743;DHT22;55583;53.012;6.556;2023-08-06T11:36:32;26.40;68.20
52743;DHT22;55583;53.012;6.556;2023-08-06T11:39:02;26.60;67.90
52743;DHT22;55583;53.012;6.556;2023-08-06T11:41:30;26.80;65.30
52743;DHT22;55583;53.012;6.556;2023-08-06T11:43:57;27.10;66.30
52743;DHT22;55583;53.012;6.556;2023-08-06T11:46:22;27.70;65.40
52743;DHT22;55583;53.012;6.556;2023-08-06T11:48:55;28.20;64.60
52743;DHT22;55583;53.012;6.556;2023-08-06T11:51:27;28.20;60.70
52743;DHT22;55583;53.012;6.556;2023-08-06T11:53:57;27.70;61.20
52743;DHT22;55583;53.012;6.556;2023-08-06T11:56:24;27.20;63.10
52743;DHT22;55583;53.012;6.556;2023-08-06T11:58:51;27.00;64.10
52743;DHT22;55583;53.012;6.556;2023-08-06T12:01:17;26.80;65.10
52743;DHT22;55583;53.012;6.556;2023-08-06T12:03:43;26.50;64.90
52743;DHT22;55583;53.012;6.556;2023-08-06T12:06:09;26.20;65.70
52743;DHT22;55583;53.012;6.556;2023-08-06T12:08:34;25.90;65.90
52743;DHT22;55583;53.012;6.556;2023-08-06T12:11:00;25.70;66.60
52743;DHT22;55583;53.012;6.556;2023-08-06T12:13:26;25.70;67.20
52743;DHT22;55583;53.012;6.556;2023-08-06T12:15:54;25.80;67.40
52743;DHT22;55583;53.012;6.556;2023-08-06T12:18:20;25.70;66.90
52743;DHT22;55583;53.012;6.556;2023-08-06T12:20:45;25.90;67.40
52743;DHT22;55583;53.012;6.556;2023-08-06T12:23:11;25.80;67.20
52743;DHT22;55583;53.012;6.556;2023-08-06T12:25:41;25.60;67.60
52743;DHT22;55583;53.012;6.556;2023-08-06T12:28:06;25.40;67.30
52743;DHT22;55583;53.012;6.556;2023-08-06T12:30:33;25.40;67.90
52743;DHT22;55583;53.012;6.556;2023-08-06T12:32:58;25.40;68.10
52743;DHT22;55583;53.012;6.556;2023-08-06T12:35:24;25.70;68.50
52743;DHT22;55583;53.012;6.556;2023-08-06T12:37:51;26.30;68.50
52743;DHT22;55583;53.012;6.556;2023-08-06T12:40:20;27.30;66.40
52743;DHT22;55583;53.012;6.556;2023-08-06T12:42:46;27.40;65.10
52743;DHT22;55583;53.012;6.556;2023-08-06T12:45:12;27.10;64.70
52743;DHT22;55583;53.012;6.556;2023-08-06T12:47:37;26.60;64.80
52743;DHT22;55583;53.012;6.556;2023-08-06T12:50:04;26.40;65.00
52743;DHT22;55583;53.012;6.556;2023-08-06T12:52:29;26.80;65.10
52743;DHT22;55583;53.012;6.556;2023-08-06T12:54:55;27.70;64.70
52743;DHT22;55583;53.012;6.556;2023-08-06T12:57:21;28.30;62.70
52743;DHT22;55583;53.012;6.556;2023-08-06T12:59:47;28.60;62.50
52743;DHT22;55583;53.012;6.556;2023-08-06T13:02:13;28.90;62.30
52743;DHT22;55583;53.012;6.556;2023-08-06T13:04:39;28.50;62.30
52743;DHT22;55583;53.012;6.556;2023-08-06T13:07:05;27.80;63.00
52743;DHT22;55583;53.012;6.556;2023-08-06T13:09:32;27.30;63.40
52743;DHT22;55583;53.012;6.556;2023-08-06T13:11:58;26.70;63.50
52743;DHT22;55583;53.012;6.556;2023-08-06T13:14:25;26.30;64.30
52743;DHT22;55583;53.012;6.556;2023-08-06T13:16:51;26.00;64.90
52743;DHT22;55583;53.012;6.556;2023-08-06T13:19:17;25.80;65.30
52743;DHT22;55583;53.012;6.556;2023-08-06T13:24:11;25.70;66.20
52743;DHT22;55583;53.012;6.556;2023-08-06T13:26:38;26.20;66.60
52743;DHT22;55583;53.012;6.556;2023-08-06T13:29:04;26.80;66.10
52743;DHT22;55583;53.012;6.556;2023-08-06T13:31:32;27.00;65.20
52743;DHT22;55583;53.012;6.556;2023-08-06T13:33:58;26.80;65.30
52743;DHT22;55583;53.012;6.556;2023-08-06T13:36:27;26.70;65.30
52743;DHT22;55583;53.012;6.556;2023-08-06T13:38:53;27.10;63.90
52743;DHT22;55583;53.012;6.556;2023-08-06T13:41:18;27.60;64.80
52743;DHT22;55583;53.012;6.556;2023-08-06T13:43:44;28.00;64.60
52743;DHT22;55583;53.012;6.556;2023-08-06T13:46:10;27.90;63.40
52743;DHT22;55583;53.012;6.556;2023-08-06T13:48:42;28.00;63.50
52743;DHT22;55583;53.012;6.556;2023-08-06T13:51:10;28.60;64.30
52743;DHT22;55583;53.012;6.556;2023-08-06T13:53:35;29.10;63.10
52743;DHT22;55583;53.012;6.556;2023-08-06T13:56:01;29.20;63.50
52743;DHT22;55583;53.012;6.556;2023-08-06T13:58:26;29.20;63.00
52743;DHT22;55583;53.012;6.556;2023-08-06T14:00:53;29.00;61.90
52743;DHT22;55583;53.012;6.556;2023-08-06T14:03:20;28.70;62.00
52743;DHT22;55583;53.012;6.556;2023-08-06T14:05:45;28.20;62.20
52743;DHT22;55583;53.012;6.556;2023-08-06T14:08:11;27.60;62.30
52743;DHT22;55583;53.012;6.556;2023-08-06T14:10:37;27.40;62.90
52743;DHT22;55583;53.012;6.556;2023-08-06T14:13:03;27.40;62.70
52743;DHT22;55583;53.012;6.556;2023-08-06T14:15:28;27.60;62.70
52743;DHT22;55583;53.012;6.556;2023-08-06T14:17:54;28.00;62.60
52743;DHT22;55583;53.012;6.556;2023-08-06T14:20:19;28.20;62.40
52743;DHT22;55583;53.012;6.556;2023-08-06T14:22:45;28.30;62.10
52743;DHT22;55583;53.012;6.556;2023-08-06T14:25:11;28.40;62.50
52743;DHT22;55583;53.012;6.556;2023-08-06T14:27:36;28.60;61.70
52743;DHT22;55583;53.012;6.556;2023-08-06T14:30:05;28.50;61.60
52743;DHT22;55583;53.012;6.556;2023-08-06T14:32:32;28.30;60.90
52743;DHT22;55583;53.012;6.556;2023-08-06T14:34:57;27.80;61.40
52743;DHT22;55583;53.012;6.556;2023-08-06T14:37:24;27.30;61.90
52743;DHT22;55583;53.012;6.556;2023-08-06T14:39:50;26.90;62.80
52743;DHT22;55583;53.012;6.556;2023-08-06T14:42:17;26.80;63.10
52743;DHT22;55583;53.012;6.556;2023-08-06T14:44:42;26.30;63.20
52743;DHT22;55583;53.012;6.556;2023-08-06T14:47:08;26.90;63.70
52743;DHT22;55583;53.012;6.556;2023-08-06T14:49:33;26.80;63.80
52743;DHT22;55583;53.012;6.556;2023-08-06T14:51:59;26.60;64.00
52743;DHT22;55583;53.012;6.556;2023-08-06T14:54:27;26.50;64.10
52743;DHT22;55583;53.012;6.556;2023-08-06T14:56:53;26.60;63.60
52743;DHT22;55583;53.012;6.556;2023-08-06T14:59:18;26.90;64.30
52743;DHT22;55583;53.012;6.556;2023-08-06T15:01:44;26.90;64.60
52743;DHT22;55583;53.012;6.556;2023-08-06T15:04:10;26.60;64.40
52743;DHT22;55583;53.012;6.556;2023-08-06T15:06:35;26.30;64.40
52743;DHT22;55583;53.012;6.556;2023-08-06T15:09:01;26.10;65.10
52743;DHT22;55583;53.012;6.556;2023-08-06T15:11:27;25.70;64.90
52743;DHT22;55583;53.012;6.556;2023-08-06T15:13:52;25.50;65.80
52743;DHT22;55583;53.012;6.556;2023-08-06T15:16:18;25.60;65.80
52743;DHT22;55583;53.012;6.556;2023-08-06T15:18:44;25.80;65.90
52743;DHT22;55583;53.012;6.556;2023-08-06T15:21:10;26.00;65.50
52743;DHT22;55583;53.012;6.556;2023-08-06T15:23:36;26.30;65.20
52743;DHT22;55583;53.012;6.556;2023-08-06T15:26:02;26.50;64.60
52743;DHT22;55583;53.012;6.556;2023-08-06T15:28:28;26.30;64.80
52743;DHT22;55583;53.012;6.556;2023-08-06T15:30:54;25.90;65.40
52743;DHT22;55583;53.012;6.556;2023-08-06T15:33:21;25.70;65.30
52743;DHT22;55583;53.012;6.556;2023-08-06T15:35:47;25.80;65.20
52743;DHT22;55583;53.012;6.556;2023-08-06T15:38:12;25.70;64.80